sensor_id;sensor_type;location;lat;lon;timestamp;P1;durP1;ratioP1;P2;durP2;ratioP2
52318;SDS011;38258;51.148;14.068;2023-04-25T00:02:10;5.70;;;2.65;;
52318;SDS011;38258;51.148;14.068;2023-04-25T00:04:36;7.90;;;2.90;;
52318;SDS011;38258;51.148;14.068;2023-04-25T00:07:04;4.15;;;2.25;;
52318;SDS011;38258;51.148;14.068;2023-04-25T00:09:32;4.55;;;2.40;;
52318;SDS011;38258;51.148;14.068;2023-04-25T00:11:59;5.07;;;2.50;;
52318;SDS011;38258;51.148;14.068;2023-04-25T00:14:26;4.20;;;2.15;;
52318;SDS011;38258;51.148;14.068;2023-04-25T00:16:53;5.55;;;2.75;;
52318;SDS011;38258;51.148;14.068;2023-04-25T00:19:21;4.43;;;2.38;;
52318;SDS011;38258;51.148;14.068;2023-04-25T00:21:48;4.97;;;2.25;;
52318;SDS011;38258;51.148;14.068;2023-04-25T00:24:15;7.07;;;3.00;;
52318;SDS011;38258;51.148;14.068;2023-04-25T00:26:43;4.88;;;2.17;;
52318;SDS011;38258;51.148;14.068;2023-04-25T00:29:09;3.97;;;2.50;;
52318;SDS011;38258;51.148;14.068;2023-04-25T00:31:37;4.00;;;2.00;;
52318;SDS011;38258;51.148;14.068;2023-04-25T00:34:03;5.53;;;2.50;;
52318;SDS011;38258;51.148;14.068;2023-04-25T00:36:30;4.72;;;2.47;;
52318;SDS011;38258;51.148;14.068;2023-04-25T00:38:57;5.97;;;2.85;;
52318;SDS011;38258;51.148;14.068;2023-04-25T00:41:24;4.57;;;2.72;;
52318;SDS011;38258;51.148;14.068;2023-04-25T00:43:53;3.75;;;2.33;;
52318;SDS011;38258;51.148;14.068;2023-04-25T00:46:20;6.45;;;2.80;;
52318;SDS011;38258;51.148;14.068;2023-04-25T00:48:47;6.03;;;2.65;;
52318;SDS011;38258;51.148;14.068;2023-04-25T00:51:15;7.22;;;3.00;;
52318;SDS011;38258;51.148;14.068;2023-04-25T00:53:45;4.97;;;2.38;;
52318;SDS011;38258;51.148;14.068;2023-04-25T00:56:13;4.03;;;2.28;;
52318;SDS011;38258;51.148;14.068;2023-04-25T00:58:40;5.13;;;2.72;;
52318;SDS011;38258;51.148;14.068;2023-04-25T01:01:09;4.63;;;2.53;;
52318;SDS011;38258;51.148;14.068;2023-04-25T01:03:37;5.70;;;2.63;;
52318;SDS011;38258;51.148;14.068;2023-04-25T01:06:06;4.63;;;2.13;;
52318;SDS011;38258;51.148;14.068;2023-04-25T01:08:34;5.30;;;2.55;;
52318;SDS011;38258;51.148;14.068;2023-04-25T01:11:00;5.00;;;2.67;;
52318;SDS011;38258;51.148;14.068;2023-04-25T01:13:27;5.60;;;2.70;;
52318;SDS011;38258;51.148;14.068;2023-04-25T01:15:54;7.88;;;3.20;;
52318;SDS011;38258;51.148;14.068;2023-04-25T01:18:22;5.78;;;2.55;;
52318;SDS011;38258;51.148;14.068;2023-04-25T01:20:50;4.63;;;2.45;;
52318;SDS011;38258;51.148;14.068;2023-04-25T01:23:21;3.53;;;2.28;;
52318;SDS011;38258;51.148;14.068;2023-04-25T01:25:49;5.75;;;2.83;;
52318;SDS011;38258;51.148;14.068;2023-04-25T01:28:17;4.63;;;2.42;;
52318;SDS011;38258;51.148;14.068;2023-04-25T01:30:44;5.28;;;2.67;;
52318;SDS011;38258;51.148;14.068;2023-04-25T01:33:11;6.03;;;2.35;;
52318;SDS011;38258;51.148;14.068;2023-04-25T01:35:40;7.30;;;3.17;;
52318;SDS011;38258;51.148;14.068;2023-04-25T01:38:07;6.18;;;2.95;;
52318;SDS011;38258;51.148;14.068;2023-04-25T01:40:35;4.47;;;2.30;;
52318;SDS011;38258;51.148;14.068;2023-04-25T01:43:06;5.95;;;2.72;;
52318;SDS011;38258;51.148;14.068;2023-04-25T01:45:36;6.65;;;2.90;;
52318;SDS011;38258;51.148;14.068;2023-04-25T01:48:05;4.90;;;2.65;;
52318;SDS011;38258;51.148;14.068;2023-04-25T01:50:32;4.82;;;2.35;;
52318;SDS011;38258;51.148;14.068;2023-04-25T01:52:59;5.95;;;2.53;;
52318;SDS011;38258;51.148;14.068;2023-04-25T01:55:27;5.20;;;2.30;;
52318;SDS011;38258;51.148;14.068;2023-04-25T01:58:05;6.63;;;2.38;;
52318;SDS011;38258;51.148;14.068;2023-04-25T02:00:53;4.35;;;2.28;;
52318;SDS011;38258;51.148;14.068;2023-04-25T02:03:20;4.65;;;2.47;;
52318;SDS011;38258;51.148;14.068;2023-04-25T02:05:46;4.72;;;2.50;;
52318;SDS011;38258;51.148;14.068;2023-04-25T02:08:14;4.78;;;2.22;;
52318;SDS011;38258;51.148;14.068;2023-04-25T02:10:42;3.95;;;2.33;;
52318;SDS011;38258;51.148;14.068;2023-04-25T02:13:15;6.20;;;2.70;;
52318;SDS011;38258;51.148;14.068;2023-04-25T02:15:56;3.97;;;2.35;;
52318;SDS011;38258;51.148;14.068;2023-04-25T02:18:23;3.72;;;2.05;;
52318;SDS011;38258;51.148;14.068;2023-04-25T02:20:51;4.85;;;2.30;;
52318;SDS011;38258;51.148;14.068;2023-04-25T02:23:19;5.07;;;2.38;;
52318;SDS011;38258;51.148;14.068;2023-04-25T02:25:46;5.07;;;2.88;;
52318;SDS011;38258;51.148;14.068;2023-04-25T02:28:20;5.63;;;2.67;;
52318;SDS011;38258;51.148;14.068;2023-04-25T02:31:06;4.05;;;2.10;;
52318;SDS011;38258;51.148;14.068;2023-04-25T02:33:33;5.18;;;2.45;;
52318;SDS011;38258;51.148;14.068;2023-04-25T02:36:00;4.82;;;2.58;;
52318;SDS011;38258;51.148;14.068;2023-04-25T02:38:26;5.07;;;2.42;;
52318;SDS011;38258;51.148;14.068;2023-04-25T02:40:55;5.20;;;2.38;;
52318;SDS011;38258;51.148;14.068;2023-04-25T02:43:28;4.18;;;2.20;;
52318;SDS011;38258;51.148;14.068;2023-04-25T02:45:55;3.90;;;2.10;;
52318;SDS011;38258;51.148;14.068;2023-04-25T02:48:22;4.45;;;2.25;;
52318;SDS011;38258;51.148;14.068;2023-04-25T02:50:48;3.60;;;2.42;;
52318;SDS011;38258;51.148;14.068;2023-04-25T02:53:15;6.65;;;2.83;;
52318;SDS011;38258;51.148;14.068;2023-04-25T02:55:47;5.05;;;2.67;;
52318;SDS011;38258;51.148;14.068;2023-04-25T02:58:13;5.82;;;2.58;;
52318;SDS011;38258;51.148;14.068;2023-04-25T03:00:46;5.43;;;2.63;;
52318;SDS011;38258;51.148;14.068;2023-04-25T03:03:13;7.18;;;2.78;;
52318;SDS011;38258;51.148;14.068;2023-04-25T03:05:43;7.88;;;2.85;;
52318;SDS011;38258;51.148;14.068;2023-04-25T03:08:10;5.20;;;2.75;;
52318;SDS011;38258;51.148;14.068;2023-04-25T03:10:38;7.57;;;3.42;;
52318;SDS011;38258;51.148;14.068;2023-04-25T03:13:07;5.07;;;2.67;;
52318;SDS011;38258;51.148;14.068;2023-04-25T03:15:34;5.03;;;2.50;;
52318;SDS011;38258;51.148;14.068;2023-04-25T03:18:03;5.90;;;2.90;;
52318;SDS011;38258;51.148;14.068;2023-04-25T03:20:30;4.63;;;2.63;;
52318;SDS011;38258;51.148;14.068;2023-04-25T03:22:56;6.82;;;3.20;;
52318;SDS011;38258;51.148;14.068;2023-04-25T03:25:23;6.13;;;3.13;;
52318;SDS011;38258;51.148;14.068;2023-04-25T03:27:50;5.65;;;2.85;;
52318;SDS011;38258;51.148;14.068;2023-04-25T03:30:17;6.50;;;3.20;;
52318;SDS011;38258;51.148;14.068;2023-04-25T03:32:44;4.45;;;2.75;;
52318;SDS011;38258;51.148;14.068;2023-04-25T03:35:16;5.60;;;2.92;;
52318;SDS011;38258;51.148;14.068;2023-04-25T03:37:43;6.68;;;3.00;;
52318;SDS011;38258;51.148;14.068;2023-04-25T03:40:14;9.82;;;3.42;;
52318;SDS011;38258;51.148;14.068;2023-04-25T03:43:00;5.10;;;2.95;;
52318;SDS011;38258;51.148;14.068;2023-04-25T03:45:26;5.80;;;2.90;;
52318;SDS011;38258;51.148;14.068;2023-04-25T03:47:53;5.22;;;2.85;;
52318;SDS011;38258;51.148;14.068;2023-04-25T03:50:21;5.35;;;2.97;;
52318;SDS011;38258;51.148;14.068;2023-04-25T03:52:48;6.25;;;3.33;;
52318;SDS011;38258;51.148;14.068;2023-04-25T03:55:15;6.07;;;3.25;;
52318;SDS011;38258;51.148;14.068;2023-04-25T03:57:42;5.47;;;3.35;;
52318;SDS011;38258;51.148;14.068;2023-04-25T04:00:10;6.43;;;3.30;;
52318;SDS011;38258;51.148;14.068;2023-04-25T04:02:41;6.80;;;3.40;;
52318;SDS011;38258;51.148;14.068;2023-04-25T04:05:09;6.85;;;3.45;;
52318;SDS011;38258;51.148;14.068;2023-04-25T04:07:42;7.80;;;3.90;;
52318;SDS011;38258;51.148;14.068;2023-04-25T04:10:10;6.95;;;3.30;;
52318;SDS011;38258;51.148;14.068;2023-04-25T04:12:38;6.72;;;3.45;;
52318;SDS011;38258;51.148;14.068;2023-04-25T04:15:05;5.72;;;3.20;;
52318;SDS011;38258;51.148;14.068;2023-04-25T04:17:34;6.72;;;3.47;;
52318;SDS011;38258;51.148;14.068;2023-04-25T04:20:00;9.27;;;4.93;;
52318;SDS011;38258;51.148;14.068;2023-04-25T04:22:30;7.38;;;3.55;;
52318;SDS011;38258;51.148;14.068;2023-04-25T04:25:01;9.18;;;3.92;;
52318;SDS011;38258;51.148;14.068;2023-04-25T04:27:49;10.15;;;4.05;;
52318;SDS011;38258;51.148;14.068;2023-04-25T04:30:38;8.05;;;4.45;;
52318;SDS011;38258;51.148;14.068;2023-04-25T04:33:07;8.02;;;4.28;;
52318;SDS011;38258;51.148;14.068;2023-04-25T04:35:34;9.85;;;3.97;;
52318;SDS011;38258;51.148;14.068;2023-04-25T04:38:01;11.00;;;4.82;;
52318;SDS011;38258;51.148;14.068;2023-04-25T04:40:33;9.73;;;4.13;;
52318;SDS011;38258;51.148;14.068;2023-04-25T04:43:06;6.18;;;3.50;;
52318;SDS011;38258;51.148;14.068;2023-04-25T04:45:38;7.88;;;4.05;;
52318;SDS011;38258;51.148;14.068;2023-04-25T04:48:25;8.70;;;3.80;;
52318;SDS011;38258;51.148;14.068;2023-04-25T04:51:22;9.65;;;4.40;;
52318;SDS011;38258;51.148;14.068;2023-04-25T04:54:02;8.25;;;3.92;;
52318;SDS011;38258;51.148;14.068;2023-04-25T04:56:46;7.55;;;3.35;;
52318;SDS011;38258;51.148;14.068;2023-04-25T04:59:39;11.27;;;4.18;;
52318;SDS011;38258;51.148;14.068;2023-04-25T05:02:25;9.65;;;3.85;;
52318;SDS011;38258;51.148;14.068;2023-04-25T05:05:19;7.13;;;3.97;;
52318;SDS011;38258;51.148;14.068;2023-04-25T05:08:08;7.65;;;3.25;;
52318;SDS011;38258;51.148;14.068;2023-04-25T05:11:10;5.30;;;2.63;;
52318;SDS011;38258;51.148;14.068;2023-04-25T05:13:52;5.80;;;3.55;;
52318;SDS011;38258;51.148;14.068;2023-04-25T05:16:45;6.28;;;3.42;;
52318;SDS011;38258;51.148;14.068;2023-04-25T05:19:32;6.47;;;3.47;;
52318;SDS011;38258;51.148;14.068;2023-04-25T05:22:19;6.53;;;4.18;;
52318;SDS011;38258;51.148;14.068;2023-04-25T05:24:56;10.20;;;4.57;;
52318;SDS011;38258;51.148;14.068;2023-04-25T05:27:31;9.13;;;4.50;;
52318;SDS011;38258;51.148;14.068;2023-04-25T05:30:20;9.40;;;4.07;;
52318;SDS011;38258;51.148;14.068;2023-04-25T05:33:06;6.55;;;3.55;;
52318;SDS011;38258;51.148;14.068;2023-04-25T05:35:33;9.10;;;4.45;;
52318;SDS011;38258;51.148;14.068;2023-04-25T05:38:00;7.50;;;3.70;;
52318;SDS011;38258;51.148;14.068;2023-04-25T05:40:49;4.85;;;2.85;;
52318;SDS011;38258;51.148;14.068;2023-04-25T05:43:37;8.20;;;2.72;;
52318;SDS011;38258;51.148;14.068;2023-04-25T05:46:22;3.47;;;2.33;;
52318;SDS011;38258;51.148;14.068;2023-04-25T05:49:14;8.27;;;3.90;;
52318;SDS011;38258;51.148;14.068;2023-04-25T05:51:53;5.03;;;2.83;;
52318;SDS011;38258;51.148;14.068;2023-04-25T05:54:40;6.22;;;2.47;;
52318;SDS011;38258;51.148;14.068;2023-04-25T05:57:07;6.00;;;2.95;;
52318;SDS011;38258;51.148;14.068;2023-04-25T05:59:33;3.42;;;2.47;;
52318;SDS011;38258;51.148;14.068;2023-04-25T06:02:02;6.03;;;2.50;;
52318;SDS011;38258;51.148;14.068;2023-04-25T06:04:32;3.95;;;2.17;;
52318;SDS011;38258;51.148;14.068;2023-04-25T06:06:59;5.82;;;3.08;;
52318;SDS011;38258;51.148;14.068;2023-04-25T06:09:26;6.75;;;3.33;;
52318;SDS011;38258;51.148;14.068;2023-04-25T06:11:53;4.22;;;2.22;;
52318;SDS011;38258;51.148;14.068;2023-04-25T06:14:20;6.95;;;3.05;;
52318;SDS011;38258;51.148;14.068;2023-04-25T06:16:49;9.15;;;3.97;;
52318;SDS011;38258;51.148;14.068;2023-04-25T06:19:17;1.67;;;1.40;;
52318;SDS011;38258;51.148;14.068;2023-04-25T06:21:44;4.60;;;2.70;;
52318;SDS011;38258;51.148;14.068;2023-04-25T06:24:11;6.63;;;3.72;;
52318;SDS011;38258;51.148;14.068;2023-04-25T06:26:38;6.00;;;3.17;;
52318;SDS011;38258;51.148;14.068;2023-04-25T06:29:05;8.00;;;2.55;;
52318;SDS011;38258;51.148;14.068;2023-04-25T06:31:31;9.68;;;2.53;;
52318;SDS011;38258;51.148;14.068;2023-04-25T06:33:59;6.78;;;2.65;;
52318;SDS011;38258;51.148;14.068;2023-04-25T06:36:29;2.92;;;1.58;;
52318;SDS011;38258;51.148;14.068;2023-04-25T06:39:02;4.63;;;2.47;;
52318;SDS011;38258;51.148;14.068;2023-04-25T06:41:32;3.55;;;1.73;;
52318;SDS011;38258;51.148;14.068;2023-04-25T06:44:01;5.85;;;3.30;;
52318;SDS011;38258;51.148;14.068;2023-04-25T06:46:47;5.10;;;3.13;;
52318;SDS011;38258;51.148;14.068;2023-04-25T06:49:14;7.68;;;3.03;;
52318;SDS011;38258;51.148;14.068;2023-04-25T06:51:42;5.15;;;2.60;;
52318;SDS011;38258;51.148;14.068;2023-04-25T06:54:09;7.25;;;2.63;;
52318;SDS011;38258;51.148;14.068;2023-04-25T06:56:48;4.15;;;2.20;;
52318;SDS011;38258;51.148;14.068;2023-04-25T06:59:15;6.15;;;3.08;;
52318;SDS011;38258;51.148;14.068;2023-04-25T07:01:44;4.47;;;2.35;;
52318;SDS011;38258;51.148;14.068;2023-04-25T07:04:17;7.35;;;3.47;;
52318;SDS011;38258;51.148;14.068;2023-04-25T07:06:56;5.63;;;3.13;;
52318;SDS011;38258;51.148;14.068;2023-04-25T07:09:43;7.13;;;2.88;;
52318;SDS011;38258;51.148;14.068;2023-04-25T07:12:10;3.95;;;1.85;;
52318;SDS011;38258;51.148;14.068;2023-04-25T07:14:37;4.75;;;2.55;;
52318;SDS011;38258;51.148;14.068;2023-04-25T07:17:04;7.28;;;2.65;;
52318;SDS011;38258;51.148;14.068;2023-04-25T07:19:32;5.53;;;2.83;;
52318;SDS011;38258;51.148;14.068;2023-04-25T07:22:02;3.55;;;2.15;;
52318;SDS011;38258;51.148;14.068;2023-04-25T07:24:30;7.15;;;3.55;;
52318;SDS011;38258;51.148;14.068;2023-04-25T07:26:57;4.53;;;2.70;;
52318;SDS011;38258;51.148;14.068;2023-04-25T07:29:28;6.82;;;3.13;;
52318;SDS011;38258;51.148;14.068;2023-04-25T07:31:57;4.85;;;3.17;;
52318;SDS011;38258;51.148;14.068;2023-04-25T07:34:24;4.38;;;2.63;;
52318;SDS011;38258;51.148;14.068;2023-04-25T07:36:51;5.68;;;3.08;;
52318;SDS011;38258;51.148;14.068;2023-04-25T07:39:20;4.50;;;2.70;;
52318;SDS011;38258;51.148;14.068;2023-04-25T07:41:48;5.88;;;3.00;;
52318;SDS011;38258;51.148;14.068;2023-04-25T07:44:21;6.88;;;2.88;;
52318;SDS011;38258;51.148;14.068;2023-04-25T07:46:48;5.93;;;2.67;;
52318;SDS011;38258;51.148;14.068;2023-04-25T07:49:15;4.93;;;2.70;;
52318;SDS011;38258;51.148;14.068;2023-04-25T07:51:43;6.18;;;2.47;;
52318;SDS011;38258;51.148;14.068;2023-04-25T07:54:13;3.65;;;2.20;;
52318;SDS011;38258;51.148;14.068;2023-04-25T07:56:46;4.47;;;2.30;;
52318;SDS011;38258;51.148;14.068;2023-04-25T07:59:13;4.25;;;1.83;;
52318;SDS011;38258;51.148;14.068;2023-04-25T08:01:41;1.58;;;1.25;;
52318;SDS011;38258;51.148;14.068;2023-04-25T08:04:09;3.22;;;2.20;;
52318;SDS011;38258;51.148;14.068;2023-04-25T08:06:56;6.10;;;2.20;;
52318;SDS011;38258;51.148;14.068;2023-04-25T08:09:29;4.45;;;2.50;;
52318;SDS011;38258;51.148;14.068;2023-04-25T08:12:01;3.72;;;2.22;;
52318;SDS011;38258;51.148;14.068;2023-04-25T08:14:30;10.30;;;2.92;;
52318;SDS011;38258;51.148;14.068;2023-04-25T08:17:01;7.75;;;3.13;;
52318;SDS011;38258;51.148;14.068;2023-04-25T08:19:30;3.72;;;2.13;;
52318;SDS011;38258;51.148;14.068;2023-04-25T08:21:57;6.40;;;3.33;;
52318;SDS011;38258;51.148;14.068;2023-04-25T08:24:31;5.03;;;2.88;;
52318;SDS011;38258;51.148;14.068;2023-04-25T08:26:58;5.78;;;2.03;;
52318;SDS011;38258;51.148;14.068;2023-04-25T08:29:28;4.93;;;2.75;;
52318;SDS011;38258;51.148;14.068;2023-04-25T08:31:55;4.28;;;2.33;;
52318;SDS011;38258;51.148;14.068;2023-04-25T08:34:22;3.97;;;2.28;;
52318;SDS011;38258;51.148;14.068;2023-04-25T08:36:49;3.97;;;2.13;;
52318;SDS011;38258;51.148;14.068;2023-04-25T08:39:21;3.22;;;1.40;;
52318;SDS011;38258;51.148;14.068;2023-04-25T08:42:07;5.47;;;2.65;;
52318;SDS011;38258;51.148;14.068;2023-04-25T08:44:36;5.00;;;1.90;;
52318;SDS011;38258;51.148;14.068;2023-04-25T08:47:03;4.38;;;2.38;;
52318;SDS011;38258;51.148;14.068;2023-04-25T08:49:34;5.65;;;2.83;;
52318;SDS011;38258;51.148;14.068;2023-04-25T08:52:02;6.00;;;2.40;;
52318;SDS011;38258;51.148;14.068;2023-04-25T08:54:31;5.15;;;2.22;;
52318;SDS011;38258;51.148;14.068;2023-04-25T08:57:00;6.53;;;3.17;;
52318;SDS011;38258;51.148;14.068;2023-04-25T08:59:29;7.88;;;3.45;;
52318;SDS011;38258;51.148;14.068;2023-04-25T09:01:57;4.82;;;2.55;;
52318;SDS011;38258;51.148;14.068;2023-04-25T09:04:24;3.53;;;2.17;;
52318;SDS011;38258;51.148;14.068;2023-04-25T09:06:51;4.43;;;2.33;;
52318;SDS011;38258;51.148;14.068;2023-04-25T09:09:18;9.57;;;3.85;;
52318;SDS011;38258;51.148;14.068;2023-04-25T09:11:44;4.70;;;3.08;;
52318;SDS011;38258;51.148;14.068;2023-04-25T09:14:13;6.38;;;3.10;;
52318;SDS011;38258;51.148;14.068;2023-04-25T09:17:02;5.93;;;3.67;;
52318;SDS011;38258;51.148;14.068;2023-04-25T09:19:36;4.90;;;2.85;;
52318;SDS011;38258;51.148;14.068;2023-04-25T09:22:08;4.60;;;2.53;;
52318;SDS011;38258;51.148;14.068;2023-04-25T09:24:36;5.60;;;3.50;;
52318;SDS011;38258;51.148;14.068;2023-04-25T09:27:04;6.28;;;3.08;;
52318;SDS011;38258;51.148;14.068;2023-04-25T09:29:32;5.65;;;3.38;;
52318;SDS011;38258;51.148;14.068;2023-04-25T09:32:15;5.53;;;3.75;;
52318;SDS011;38258;51.148;14.068;2023-04-25T09:34:45;6.95;;;3.80;;
52318;SDS011;38258;51.148;14.068;2023-04-25T09:37:19;8.63;;;3.10;;
52318;SDS011;38258;51.148;14.068;2023-04-25T09:40:19;7.85;;;3.83;;
52318;SDS011;38258;51.148;14.068;2023-04-25T09:43:01;6.97;;;3.55;;
52318;SDS011;38258;51.148;14.068;2023-04-25T09:45:29;3.78;;;2.63;;
52318;SDS011;38258;51.148;14.068;2023-04-25T09:47:59;6.43;;;3.15;;
52318;SDS011;38258;51.148;14.068;2023-04-25T09:50:31;10.05;;;2.83;;
52318;SDS011;38258;51.148;14.068;2023-04-25T09:53:05;3.95;;;2.15;;
52318;SDS011;38258;51.148;14.068;2023-04-25T09:55:48;2.50;;;1.83;;
52318;SDS011;38258;51.148;14.068;2023-04-25T09:58:15;6.63;;;3.65;;
52318;SDS011;38258;51.148;14.068;2023-04-25T10:00:43;5.13;;;2.78;;
52318;SDS011;38258;51.148;14.068;2023-04-25T10:03:24;5.72;;;2.90;;
52318;SDS011;38258;51.148;14.068;2023-04-25T10:06:05;7.35;;;2.70;;
52318;SDS011;38258;51.148;14.068;2023-04-25T10:08:35;2.90;;;1.85;;
52318;SDS011;38258;51.148;14.068;2023-04-25T10:11:03;4.68;;;2.22;;
52318;SDS011;38258;51.148;14.068;2023-04-25T10:13:32;4.78;;;2.60;;
52318;SDS011;38258;51.148;14.068;2023-04-25T10:16:00;3.28;;;2.10;;
52318;SDS011;38258;51.148;14.068;2023-04-25T10:18:29;3.25;;;1.83;;
52318;SDS011;38258;51.148;14.068;2023-04-25T10:20:57;4.70;;;2.00;;
52318;SDS011;38258;51.148;14.068;2023-04-25T10:23:25;1.85;;;1.30;;
52318;SDS011;38258;51.148;14.068;2023-04-25T10:25:53;3.35;;;1.95;;
52318;SDS011;38258;51.148;14.068;2023-04-25T10:28:21;3.10;;;2.03;;
52318;SDS011;38258;51.148;14.068;2023-04-25T10:30:57;6.35;;;3.55;;
52318;SDS011;38258;51.148;14.068;2023-04-25T10:33:35;4.93;;;2.20;;
52318;SDS011;38258;51.148;14.068;2023-04-25T10:36:10;4.68;;;2.13;;
52318;SDS011;38258;51.148;14.068;2023-04-25T10:38:37;3.97;;;2.20;;
52318;SDS011;38258;51.148;14.068;2023-04-25T10:41:05;4.05;;;2.10;;
52318;SDS011;38258;51.148;14.068;2023-04-25T10:43:35;4.70;;;2.13;;
52318;SDS011;38258;51.148;14.068;2023-04-25T10:46:12;5.43;;;2.13;;
52318;SDS011;38258;51.148;14.068;2023-04-25T10:48:45;3.17;;;1.77;;
52318;SDS011;38258;51.148;14.068;2023-04-25T10:51:18;3.67;;;2.25;;
52318;SDS011;38258;51.148;14.068;2023-04-25T10:53:47;2.22;;;1.35;;
52318;SDS011;38258;51.148;14.068;2023-04-25T10:56:22;3.40;;;2.00;;
52318;SDS011;38258;51.148;14.068;2023-04-25T10:58:52;5.57;;;2.17;;
52318;SDS011;38258;51.148;14.068;2023-04-25T11:01:35;3.17;;;1.65;;
52318;SDS011;38258;51.148;14.068;2023-04-25T11:04:05;3.75;;;2.35;;
52318;SDS011;38258;51.148;14.068;2023-04-25T11:06:34;1.85;;;1.40;;
52318;SDS011;38258;51.148;14.068;2023-04-25T11:09:23;3.28;;;2.03;;
52318;SDS011;38258;51.148;14.068;2023-04-25T11:11:53;4.60;;;2.58;;
52318;SDS011;38258;51.148;14.068;2023-04-25T11:14:20;5.65;;;2.65;;
52318;SDS011;38258;51.148;14.068;2023-04-25T11:16:49;4.68;;;2.47;;
52318;SDS011;38258;51.148;14.068;2023-04-25T11:19:20;4.93;;;2.63;;
52318;SDS011;38258;51.148;14.068;2023-04-25T11:21:47;4.05;;;2.47;;
52318;SDS011;38258;51.148;14.068;2023-04-25T11:24:14;2.30;;;1.60;;
52318;SDS011;38258;51.148;14.068;2023-04-25T11:26:42;4.93;;;2.60;;
52318;SDS011;38258;51.148;14.068;2023-04-25T11:29:09;4.43;;;2.78;;
52318;SDS011;38258;51.148;14.068;2023-04-25T11:31:36;4.28;;;2.17;;
52318;SDS011;38258;51.148;14.068;2023-04-25T11:34:03;4.65;;;2.08;;
52318;SDS011;38258;51.148;14.068;2023-04-25T11:36:31;3.45;;;1.92;;
52318;SDS011;38258;51.148;14.068;2023-04-25T11:38:58;7.30;;;3.38;;
52318;SDS011;38258;51.148;14.068;2023-04-25T11:41:25;6.57;;;3.67;;
52318;SDS011;38258;51.148;14.068;2023-04-25T11:43:52;5.35;;;3.17;;
52318;SDS011;38258;51.148;14.068;2023-04-25T11:46:19;4.90;;;2.70;;
52318;SDS011;38258;51.148;14.068;2023-04-25T11:48:46;6.38;;;2.92;;
52318;SDS011;38258;51.148;14.068;2023-04-25T11:51:13;2.03;;;1.55;;
52318;SDS011;38258;51.148;14.068;2023-04-25T11:53:41;3.67;;;1.45;;
52318;SDS011;38258;51.148;14.068;2023-04-25T11:56:10;6.25;;;2.50;;
52318;SDS011;38258;51.148;14.068;2023-04-25T11:58:56;5.00;;;2.75;;
52318;SDS011;38258;51.148;14.068;2023-04-25T12:01:27;5.45;;;2.05;;
52318;SDS011;38258;51.148;14.068;2023-04-25T12:03:55;5.15;;;2.20;;
52318;SDS011;38258;51.148;14.068;2023-04-25T12:06:25;4.10;;;2.30;;
52318;SDS011;38258;51.148;14.068;2023-04-25T12:09:04;2.75;;;1.90;;
52318;SDS011;38258;51.148;14.068;2023-04-25T12:11:40;4.63;;;2.03;;
52318;SDS011;38258;51.148;14.068;2023-04-25T12:14:07;2.10;;;1.38;;
52318;SDS011;38258;51.148;14.068;2023-04-25T12:16:41;2.88;;;1.77;;
52318;SDS011;38258;51.148;14.068;2023-04-25T12:19:08;4.18;;;1.40;;
52318;SDS011;38258;51.148;14.068;2023-04-25T12:21:35;3.08;;;1.80;;
52318;SDS011;38258;51.148;14.068;2023-04-25T12:24:13;1.60;;;1.05;;
52318;SDS011;38258;51.148;14.068;2023-04-25T12:26:45;3.40;;;1.50;;
52318;SDS011;38258;51.148;14.068;2023-04-25T12:29:15;1.80;;;1.15;;
52318;SDS011;38258;51.148;14.068;2023-04-25T12:31:42;2.58;;;1.75;;
52318;SDS011;38258;51.148;14.068;2023-04-25T12:34:10;1.95;;;1.25;;
52318;SDS011;38258;51.148;14.068;2023-04-25T12:36:37;4.88;;;2.30;;
52318;SDS011;38258;51.148;14.068;2023-04-25T12:39:03;3.72;;;1.60;;
52318;SDS011;38258;51.148;14.068;2023-04-25T12:41:32;3.10;;;2.10;;
52318;SDS011;38258;51.148;14.068;2023-04-25T12:43:58;8.77;;;2.25;;
52318;SDS011;38258;51.148;14.068;2023-04-25T12:46:25;5.05;;;1.90;;
52318;SDS011;38258;51.148;14.068;2023-04-25T12:48:52;3.83;;;2.13;;
52318;SDS011;38258;51.148;14.068;2023-04-25T12:51:20;3.22;;;1.63;;
52318;SDS011;38258;51.148;14.068;2023-04-25T12:53:50;5.70;;;2.20;;
52318;SDS011;38258;51.148;14.068;2023-04-25T12:56:17;3.95;;;2.28;;
52318;SDS011;38258;51.148;14.068;2023-04-25T12:58:45;4.38;;;2.33;;
52318;SDS011;38258;51.148;14.068;2023-04-25T13:01:13;7.63;;;2.55;;
52318;SDS011;38258;51.148;14.068;2023-04-25T13:03:40;3.28;;;1.45;;
52318;SDS011;38258;51.148;14.068;2023-04-25T13:06:07;6.32;;;2.20;;
52318;SDS011;38258;51.148;14.068;2023-04-25T13:08:34;5.53;;;1.92;;
52318;SDS011;38258;51.148;14.068;2023-04-25T13:11:02;5.03;;;2.13;;
52318;SDS011;38258;51.148;14.068;2023-04-25T13:13:29;4.97;;;1.95;;
52318;SDS011;38258;51.148;14.068;2023-04-25T13:15:58;5.47;;;2.22;;
52318;SDS011;38258;51.148;14.068;2023-04-25T13:18:25;4.72;;;2.30;;
52318;SDS011;38258;51.148;14.068;2023-04-25T13:20:52;3.90;;;1.60;;
52318;SDS011;38258;51.148;14.068;2023-04-25T13:23:18;4.28;;;2.50;;
52318;SDS011;38258;51.148;14.068;2023-04-25T13:25:46;5.68;;;2.58;;
52318;SDS011;38258;51.148;14.068;2023-04-25T13:28:13;6.28;;;2.40;;
52318;SDS011;38258;51.148;14.068;2023-04-25T13:30:41;5.63;;;2.85;;
52318;SDS011;38258;51.148;14.068;2023-04-25T13:33:10;4.00;;;1.95;;
52318;SDS011;38258;51.148;14.068;2023-04-25T13:35:37;5.25;;;2.67;;
52318;SDS011;38258;51.148;14.068;2023-04-25T13:38:04;5.60;;;2.40;;
52318;SDS011;38258;51.148;14.068;2023-04-25T13:40:31;4.95;;;2.00;;
52318;SDS011;38258;51.148;14.068;2023-04-25T13:42:58;6.78;;;3.80;;
52318;SDS011;38258;51.148;14.068;2023-04-25T13:45:25;8.40;;;4.75;;
52318;SDS011;38258;51.148;14.068;2023-04-25T13:47:52;10.52;;;3.58;;
52318;SDS011;38258;51.148;14.068;2023-04-25T13:50:20;5.22;;;2.85;;
52318;SDS011;38258;51.148;14.068;2023-04-25T13:52:47;5.50;;;2.50;;
52318;SDS011;38258;51.148;14.068;2023-04-25T13:55:14;8.05;;;2.90;;
52318;SDS011;38258;51.148;14.068;2023-04-25T13:57:40;8.15;;;3.40;;
52318;SDS011;38258;51.148;14.068;2023-04-25T14:00:08;7.90;;;3.10;;
52318;SDS011;38258;51.148;14.068;2023-04-25T14:02:36;3.58;;;1.92;;
52318;SDS011;38258;51.148;14.068;2023-04-25T14:05:03;7.95;;;3.22;;
52318;SDS011;38258;51.148;14.068;2023-04-25T14:07:33;9.63;;;3.75;;
52318;SDS011;38258;51.148;14.068;2023-04-25T14:10:00;7.30;;;2.92;;
52318;SDS011;38258;51.148;14.068;2023-04-25T14:12:27;7.88;;;3.47;;
52318;SDS011;38258;51.148;14.068;2023-04-25T14:14:53;7.63;;;3.38;;
52318;SDS011;38258;51.148;14.068;2023-04-25T14:17:20;9.30;;;3.15;;
52318;SDS011;38258;51.148;14.068;2023-04-25T14:19:47;6.80;;;3.33;;
52318;SDS011;38258;51.148;14.068;2023-04-25T14:22:16;9.27;;;4.18;;
52318;SDS011;38258;51.148;14.068;2023-04-25T14:24:44;11.75;;;3.85;;
52318;SDS011;38258;51.148;14.068;2023-04-25T14:27:10;5.35;;;2.47;;
52318;SDS011;38258;51.148;14.068;2023-04-25T14:29:37;6.82;;;3.08;;
52318;SDS011;38258;51.148;14.068;2023-04-25T14:32:04;8.32;;;2.67;;
52318;SDS011;38258;51.148;14.068;2023-04-25T14:34:31;5.60;;;2.78;;
52318;SDS011;38258;51.148;14.068;2023-04-25T14:36:58;7.10;;;2.92;;
52318;SDS011;38258;51.148;14.068;2023-04-25T14:39:25;6.50;;;2.40;;
52318;SDS011;38258;51.148;14.068;2023-04-25T14:41:53;4.00;;;2.33;;
52318;SDS011;38258;51.148;14.068;2023-04-25T14:44:19;3.90;;;2.42;;
52318;SDS011;38258;51.148;14.068;2023-04-25T14:46:46;7.05;;;2.42;;
52318;SDS011;38258;51.148;14.068;2023-04-25T14:49:13;6.60;;;2.83;;
52318;SDS011;38258;51.148;14.068;2023-04-25T14:51:40;8.40;;;2.90;;
52318;SDS011;38258;51.148;14.068;2023-04-25T14:54:06;4.85;;;2.40;;